Hauptseite
METAR-TAF:

Flughäfen :

Newquay Cornwall, England

Newquay Cornwall Airport

Breite: 50-26N, Länge: 005-00W, Höhe: 119 m

Beobachtung

Neuester Wetterbericht von vor 6 Stunden und 25 Minuten, um 19:50 UTC
Wind 10 kt aus West/Nordwest
Temperatur 8°C
Luftfeuchtigkeit 71%
Luftdruck 1027 hPa
Sichtweite 10 km oder mehr
Aufgelockert bewölkt in der Höhe von 2900 ft

METAR: EGHQ 301950Z 29010KT 9999 SCT029 08/03 Q1027

Zeit: 03:15 (02:15 UTC)

Prognose

Neuester Wetterbericht von vor 9 Stunden und 22 Minuten, um 16:53 UTC
Gültige Prognose vom 30 um 18 UTC bis 30 um 21 UTC
Wind 10 kt aus West
Sichtweite 10 km oder mehr
Leicht bewölkt in der Höhe von 2500 ft

TAF: EGHQ 301653Z 3018/3021 27010KT 9999 FEW025

METAR-TAF

Wetterbeobachtungen und Prognosen von mehr als 4000 Flughäfen (METAR und TAF Bericht).

Die verfügbaren Stationen werden durch gelbe und rote Markierungen auf der Karte dargestellt.

Führen Sie die Maus auf sie, um den Namen der Station zu sehen.

Darauf klicken, um die Beobachtung von Wetterbeobachtungen und Prognosen zu sehen.

Um die Karte zu ändern : klicken Sie auf den grünen Tasten mit einem schwarzen Kreuz Zum Vergrößern, auf den grünen Button mit einem Gedankenstrich zu verkleinern, oder auf die grünen Pfeile für benachbarte Karten.


METAR-TAF: